createdAt,value
2023-01-23T00:01:28.130Z,0.08
2023-01-23T00:03:55.864Z,0.09
2023-01-23T00:06:23.170Z,0.10
2023-01-23T00:08:50.429Z,0.13
2023-01-23T00:11:24.027Z,0.10
2023-01-23T00:13:57.321Z,0.09
2023-01-23T00:16:25.212Z,0.09
2023-01-23T00:18:52.357Z,0.09
2023-01-23T00:21:26.387Z,0.10
2023-01-23T00:23:54.913Z,0.12
2023-01-23T00:26:23.904Z,0.09
2023-01-23T00:28:51.316Z,0.05
2023-01-23T00:31:29.577Z,0.07
2023-01-23T00:34:11.393Z,0.08
2023-01-23T00:36:39.228Z,0.11
2023-01-23T00:39:17.418Z,0.14
2023-01-23T00:41:45.922Z,0.13
2023-01-23T00:44:18.406Z,0.11
2023-01-23T00:46:45.878Z,0.17
2023-01-23T00:49:12.943Z,0.16
2023-01-23T00:51:39.920Z,0.16
2023-01-23T00:54:07.010Z,0.14
2023-01-23T00:56:34.172Z,0.11
2023-01-23T00:59:01.313Z,0.13
2023-01-23T01:01:29.215Z,0.10
2023-01-23T01:03:56.406Z,0.13
2023-01-23T01:06:23.589Z,0.11
2023-01-23T01:08:50.627Z,0.11
2023-01-23T01:11:17.679Z,0.09
2023-01-23T01:13:50.031Z,0.10
2023-01-23T01:16:24.500Z,0.10
2023-01-23T01:18:51.689Z,0.06
2023-01-23T01:21:19.890Z,-0.02
2023-01-23T01:23:47.039Z,-0.00
2023-01-23T01:26:14.189Z,0.07
2023-01-23T01:28:42.672Z,0.13
2023-01-23T01:31:12.252Z,0.12
2023-01-23T01:33:45.002Z,0.10
2023-01-23T01:36:13.542Z,0.10
2023-01-23T01:38:40.893Z,0.11
2023-01-23T01:41:08.574Z,0.08
2023-01-23T01:43:36.127Z,0.05
2023-01-23T01:46:24.075Z,0.05
2023-01-23T01:49:09.739Z,0.11
2023-01-23T01:51:56.019Z,0.13
2023-01-23T01:54:37.826Z,0.12
2023-01-23T01:57:44.504Z,0.10
2023-01-23T02:00:16.687Z,0.12
2023-01-23T02:02:59.090Z,0.09
2023-01-23T02:05:27.069Z,0.12
2023-01-23T02:08:09.593Z,0.20
2023-01-23T02:10:44.593Z,0.25
2023-01-23T02:13:26.184Z,0.26
2023-01-23T02:15:58.481Z,0.25
2023-01-23T02:18:27.228Z,0.24
2023-01-23T02:21:00.624Z,0.20
2023-01-23T02:23:39.764Z,0.20
2023-01-23T02:26:13.954Z,0.24
2023-01-23T02:28:48.155Z,0.22
2023-01-23T02:31:19.150Z,0.27
2023-01-23T02:33:49.158Z,0.33
2023-01-23T02:36:17.359Z,0.30
2023-01-23T02:38:54.938Z,0.30
2023-01-23T02:41:33.857Z,0.29
2023-01-23T02:44:26.609Z,0.27
2023-01-23T02:46:59.746Z,0.23
2023-01-23T02:49:32.160Z,0.20
2023-01-23T02:51:59.724Z,0.19
2023-01-23T02:54:26.888Z,0.17
2023-01-23T02:56:54.027Z,0.14
2023-01-23T02:59:41.361Z,0.22
2023-01-23T03:02:08.638Z,0.26
2023-01-23T03:04:40.867Z,0.32
2023-01-23T03:07:07.908Z,0.36
2023-01-23T03:09:35.063Z,0.31
2023-01-23T03:12:09.382Z,0.30
2023-01-23T03:14:38.026Z,0.36
2023-01-23T03:17:05.057Z,0.44
2023-01-23T03:19:39.589Z,0.49
2023-01-23T03:22:07.269Z,0.49
2023-01-23T03:24:34.589Z,0.41
2023-01-23T03:27:06.780Z,0.41
2023-01-23T03:29:57.747Z,0.41
2023-01-23T03:32:36.075Z,0.44
2023-01-23T03:35:04.521Z,0.41
2023-01-23T03:37:31.652Z,0.40
2023-01-23T03:40:23.000Z,0.40
2023-01-23T03:42:50.080Z,0.45
2023-01-23T03:45:23.015Z,0.54
2023-01-23T03:47:51.297Z,0.60
2023-01-23T03:50:18.672Z,0.60
2023-01-23T03:52:51.151Z,0.63
2023-01-23T03:55:18.375Z,0.57
2023-01-23T03:57:46.149Z,0.56
2023-01-23T04:00:19.843Z,0.58
2023-01-23T04:02:55.408Z,0.53
2023-01-23T04:05:22.949Z,0.55
2023-01-23T04:07:50.101Z,0.61
2023-01-23T04:10:22.508Z,0.54
2023-01-23T04:12:53.448Z,0.54
2023-01-23T04:15:20.658Z,0.57
2023-01-23T04:17:48.114Z,0.55
2023-01-23T04:20:20.620Z,0.49
2023-01-23T04:22:47.902Z,0.49
2023-01-23T04:25:20.213Z,0.46
2023-01-23T04:27:47.575Z,0.38
2023-01-23T04:30:14.626Z,0.33
2023-01-23T04:32:46.818Z,0.27
2023-01-23T04:35:14.650Z,0.27
2023-01-23T04:44:59.260Z,0.21
2023-01-23T04:47:32.589Z,0.11
2023-01-23T04:50:00.847Z,0.07
2023-01-23T04:52:29.411Z,0.09
2023-01-23T04:54:57.730Z,0.07
2023-01-23T04:57:30.486Z,-0.01
2023-01-23T05:00:04.377Z,-0.06
2023-01-23T05:02:37.305Z,-0.10
2023-01-23T05:05:09.941Z,-0.09
2023-01-23T05:07:43.946Z,-0.06
2023-01-23T05:10:15.090Z,-0.15
2023-01-23T05:12:43.059Z,-0.31
2023-01-23T05:15:10.522Z,-0.38
2023-01-23T05:17:39.308Z,-0.37
2023-01-23T05:20:07.492Z,-0.38
2023-01-23T05:22:42.103Z,-0.35
2023-01-23T05:25:10.276Z,-0.39
2023-01-23T05:27:37.533Z,-0.49
2023-01-23T05:30:05.497Z,-0.58
2023-01-23T05:32:34.300Z,-0.68
2023-01-23T05:35:15.072Z,-0.74
2023-01-23T05:37:43.460Z,-0.80
2023-01-23T05:40:11.441Z,-0.80
2023-01-23T05:42:57.398Z,-0.83
2023-01-23T05:45:44.830Z,-0.83
2023-01-23T05:48:20.143Z,-0.84
2023-01-23T05:50:47.311Z,-0.80
2023-01-23T05:53:14.671Z,-0.82
2023-01-23T05:55:44.297Z,-0.88
2023-01-23T05:58:13.019Z,-0.87
2023-01-23T06:00:57.005Z,-0.93
2023-01-23T06:03:43.206Z,-1.02
2023-01-23T06:06:41.564Z,-0.99
2023-01-23T06:09:09.357Z,-0.93
2023-01-23T06:11:38.778Z,-0.86
2023-01-23T06:14:06.963Z,-0.84
2023-01-23T06:16:34.431Z,-0.75
2023-01-23T06:19:01.563Z,-0.68
2023-01-23T06:21:30.322Z,-0.67
2023-01-23T06:24:01.132Z,-0.70
2023-01-23T06:26:28.263Z,-0.70
2023-01-23T06:28:56.071Z,-0.68
2023-01-23T06:31:24.050Z,-0.62
2023-01-23T06:33:58.052Z,-0.62
2023-01-23T06:36:29.403Z,-0.61
2023-01-23T06:39:03.303Z,-0.55
2023-01-23T06:41:36.190Z,-0.51
2023-01-23T06:44:04.672Z,-0.42
2023-01-23T06:46:33.592Z,-0.36
2023-01-23T06:49:06.131Z,-0.24
2023-01-23T06:51:34.711Z,-0.19
2023-01-23T06:54:01.871Z,-0.12
2023-01-23T06:56:29.373Z,-0.07
2023-01-23T06:58:56.474Z,0.05
2023-01-23T07:01:29.758Z,0.11
2023-01-23T07:04:15.145Z,0.18
2023-01-23T07:06:43.365Z,0.19
2023-01-23T07:09:11.102Z,0.23
2023-01-23T07:11:39.132Z,0.25
2023-01-23T07:14:06.571Z,0.27
2023-01-23T07:16:35.374Z,0.27
2023-01-23T07:19:04.739Z,0.27
2023-01-23T07:21:32.864Z,0.32
2023-01-23T07:23:59.766Z,0.32
2023-01-23T07:26:26.763Z,0.32
2023-01-23T07:28:53.587Z,0.38
2023-01-23T07:31:21.082Z,0.48
2023-01-23T07:33:50.027Z,0.61
2023-01-23T07:36:17.907Z,0.70
2023-01-23T07:38:44.675Z,0.79
2023-01-23T07:41:13.769Z,0.83
2023-01-23T07:43:40.556Z,0.85
2023-01-23T07:46:09.540Z,0.84
2023-01-23T07:48:39.561Z,0.84
2023-01-23T07:51:07.125Z,0.85
2023-01-23T07:53:34.026Z,0.85
2023-01-23T07:56:04.449Z,0.89
2023-01-23T07:58:32.208Z,0.86
2023-01-23T08:01:00.297Z,0.95
2023-01-23T08:03:29.676Z,1.02
2023-01-23T08:06:01.647Z,0.96
2023-01-23T08:08:30.158Z,0.95
2023-01-23T08:10:56.965Z,0.93
2023-01-23T08:13:23.883Z,0.99
2023-01-23T08:15:52.773Z,1.02
2023-01-23T08:18:19.581Z,1.07
2023-01-23T08:20:53.147Z,1.12
2023-01-23T08:23:23.570Z,1.11
2023-01-23T08:25:54.997Z,1.06
2023-01-23T08:28:22.143Z,0.92
2023-01-23T08:30:49.618Z,0.83
2023-01-23T08:33:18.065Z,0.83
2023-01-23T08:35:56.582Z,0.88
2023-01-23T08:38:24.203Z,0.95
2023-01-23T08:40:52.283Z,1.02
2023-01-23T08:43:20.269Z,1.03
2023-01-23T08:45:51.415Z,1.01
2023-01-23T08:48:19.932Z,1.00
2023-01-23T08:50:47.405Z,0.93
2023-01-23T08:53:15.039Z,0.89
2023-01-23T08:55:42.125Z,0.85
2023-01-23T08:58:12.423Z,0.88
2023-01-23T09:00:39.596Z,0.87
2023-01-23T09:03:06.641Z,0.91
2023-01-23T09:05:33.951Z,0.91
2023-01-23T09:08:07.115Z,0.89
2023-01-23T09:10:37.619Z,0.88
2023-01-23T09:13:04.689Z,0.93
2023-01-23T09:15:31.964Z,0.91
2023-01-23T09:17:59.494Z,0.87
2023-01-23T09:20:28.573Z,0.84
2023-01-23T09:22:55.831Z,0.84
2023-01-23T09:25:22.743Z,0.73
2023-01-23T09:27:50.044Z,0.72
2023-01-23T09:30:17.349Z,0.73
2023-01-23T09:32:44.569Z,0.70
2023-01-23T09:35:11.402Z,0.80
2023-01-23T09:38:00.319Z,0.87
2023-01-23T09:40:35.161Z,0.92
2023-01-23T09:43:13.680Z,0.94
2023-01-23T09:45:41.591Z,0.99
2023-01-23T09:48:20.945Z,1.03
2023-01-23T09:50:56.302Z,1.03
2023-01-23T09:53:26.039Z,0.99
2023-01-23T09:55:58.058Z,0.92
2023-01-23T09:58:28.291Z,0.94
2023-01-23T10:00:55.470Z,0.96
2023-01-23T10:03:23.165Z,0.91
2023-01-23T10:06:13.712Z,0.93
2023-01-23T10:08:56.323Z,0.95
2023-01-23T10:11:37.858Z,0.90
2023-01-23T10:14:04.766Z,0.94
2023-01-23T10:16:50.911Z,0.97
2023-01-23T10:19:21.287Z,1.00
2023-01-23T10:21:53.911Z,1.00
2023-01-23T10:24:46.137Z,0.98
2023-01-23T10:27:19.424Z,1.01
2023-01-23T10:30:18.261Z,1.03
2023-01-23T10:32:54.592Z,1.01
2023-01-23T10:35:29.101Z,0.97
2023-01-23T10:38:05.092Z,0.94
2023-01-23T10:40:52.364Z,0.95
2023-01-23T10:43:20.488Z,0.94
2023-01-23T10:45:48.341Z,0.96
2023-01-23T10:48:39.131Z,0.96
2023-01-23T10:51:32.282Z,0.97
2023-01-23T10:54:33.736Z,1.07
2023-01-23T10:57:08.370Z,1.10
2023-01-23T10:59:47.985Z,1.13
2023-01-23T11:02:15.449Z,1.12
2023-01-23T11:04:43.968Z,1.09
2023-01-23T11:07:18.848Z,1.14
2023-01-23T11:09:46.947Z,1.25
2023-01-23T11:12:22.932Z,1.35
2023-01-23T11:14:50.352Z,1.32
2023-01-23T11:17:20.687Z,1.28
2023-01-23T11:19:53.110Z,1.29
2023-01-23T11:22:24.209Z,1.27
2023-01-23T11:24:51.624Z,1.27
2023-01-23T11:27:30.831Z,1.32
2023-01-23T11:30:21.925Z,1.35
2023-01-23T11:32:56.253Z,1.38
2023-01-23T11:35:57.700Z,1.44
2023-01-23T11:38:31.505Z,1.49
2023-01-23T11:40:58.669Z,1.52
2023-01-23T11:43:25.540Z,1.55
2023-01-23T11:46:02.157Z,1.48
2023-01-23T11:48:54.083Z,1.42
2023-01-23T11:51:41.550Z,1.38
2023-01-23T11:54:48.742Z,1.40
2023-01-23T11:57:42.157Z,1.36
2023-01-23T12:00:17.279Z,1.41
2023-01-23T12:03:02.936Z,1.43
2023-01-23T12:08:58.149Z,1.34
2023-01-23T12:11:24.993Z,1.34
2023-01-23T12:13:55.411Z,1.39
2023-01-23T12:16:57.521Z,1.39
2023-01-23T12:19:33.382Z,1.35
2023-01-23T12:22:03.074Z,1.35
2023-01-23T12:24:49.495Z,1.37
2023-01-23T12:27:43.506Z,1.29
2023-01-23T12:30:25.293Z,1.18
2023-01-23T12:32:55.659Z,1.26
2023-01-23T12:35:26.182Z,1.33
2023-01-23T12:38:06.648Z,1.40
2023-01-23T12:40:39.562Z,1.45
2023-01-23T12:43:10.946Z,1.30
2023-01-23T12:45:41.372Z,1.17
2023-01-23T12:48:18.087Z,1.11
2023-01-23T12:50:47.058Z,1.10
2023-01-23T12:53:16.360Z,1.14
2023-01-23T12:56:03.852Z,1.10
2023-01-23T12:58:35.484Z,1.12
2023-01-23T13:01:06.197Z,1.11
2023-01-23T13:04:26.997Z,1.02
2023-01-23T13:06:56.891Z,1.00
2023-01-23T17:00:03.394Z,0.04
2023-01-23T17:02:30.789Z,0.09
2023-01-23T17:04:58.219Z,0.09
2023-01-23T17:07:25.313Z,0.13
2023-01-23T17:09:52.701Z,0.18
2023-01-23T17:12:28.487Z,0.22
2023-01-23T17:14:55.953Z,0.25
2023-01-23T17:17:34.803Z,0.31
2023-01-23T17:20:04.833Z,0.30
2023-01-23T17:22:38.724Z,0.27
2023-01-23T17:25:25.257Z,0.23
2023-01-23T17:28:07.299Z,0.18
2023-01-23T17:30:39.472Z,0.18
2023-01-23T17:33:20.617Z,0.22
2023-01-23T17:35:48.581Z,0.25
2023-01-23T17:38:17.500Z,0.23
2023-01-23T17:40:44.899Z,0.25
2023-01-23T17:43:13.684Z,0.22
2023-01-23T17:45:41.088Z,0.17
2023-01-23T17:48:12.858Z,0.06
2023-01-23T17:50:43.898Z,0.06
2023-01-23T17:53:15.274Z,0.07
2023-01-23T17:55:46.337Z,0.09
2023-01-23T17:58:13.700Z,0.12
2023-01-23T18:00:49.002Z,0.11
2023-01-23T18:03:19.610Z,0.13
2023-01-23T18:05:50.463Z,0.11
2023-01-23T18:08:23.917Z,0.11
2023-01-23T18:10:53.083Z,0.13
2023-01-23T18:13:34.658Z,0.14
2023-01-23T18:16:07.866Z,0.16
2023-01-23T18:18:37.008Z,0.15
2023-01-23T18:21:06.165Z,0.11
2023-01-23T18:23:37.030Z,0.12
2023-01-23T18:26:13.491Z,0.12
2023-01-23T18:28:52.535Z,0.13
2023-01-23T18:31:38.840Z,0.18
2023-01-23T18:34:36.870Z,0.16
2023-01-23T18:37:34.375Z,0.14
2023-01-23T18:40:33.775Z,0.13
2023-01-23T18:43:13.955Z,0.13
2023-01-23T18:45:41.510Z,0.14
2023-01-23T18:48:25.441Z,0.12
2023-01-23T18:51:20.238Z,0.09
2023-01-23T18:54:17.237Z,0.04
2023-01-23T18:57:09.940Z,0.02
2023-01-23T19:00:00.312Z,0.01
2023-01-23T19:02:36.550Z,-0.04
2023-01-23T19:05:03.608Z,-0.08
2023-01-23T19:07:31.038Z,-0.11
2023-01-23T19:09:58.149Z,-0.12
2023-01-23T19:12:40.923Z,-0.13
2023-01-23T19:15:20.318Z,-0.15
2023-01-23T19:18:02.722Z,-0.18
2023-01-23T19:20:40.386Z,-0.23
2023-01-23T19:23:35.347Z,-0.26
2023-01-23T19:26:02.763Z,-0.25
2023-01-23T19:28:30.054Z,-0.23
2023-01-23T19:30:57.338Z,-0.27
2023-01-23T19:33:24.213Z,-0.30
2023-01-23T19:35:54.299Z,-0.28
2023-01-23T19:38:23.470Z,-0.23
2023-01-23T19:40:51.281Z,-0.21
2023-01-23T19:43:23.847Z,-0.20
2023-01-23T19:45:52.846Z,-0.22
2023-01-23T19:48:19.826Z,-0.23
2023-01-23T19:50:52.244Z,-0.24
2023-01-23T19:53:20.535Z,-0.26
2023-01-23T19:55:47.776Z,-0.26
2023-01-23T19:58:19.819Z,-0.26
2023-01-23T20:00:46.669Z,-0.27
2023-01-23T20:03:14.291Z,-0.27
2023-01-23T20:05:46.685Z,-0.27
2023-01-23T20:08:13.709Z,-0.26
2023-01-23T20:10:40.551Z,-0.25
2023-01-23T20:13:08.291Z,-0.25
2023-01-23T20:15:35.589Z,-0.25
2023-01-23T20:18:03.506Z,-0.24
2023-01-23T20:20:30.392Z,-0.22
2023-01-23T20:22:57.337Z,-0.18
2023-01-23T20:25:25.677Z,-0.15
2023-01-23T20:27:52.597Z,-0.22
2023-01-23T20:30:25.025Z,-0.25
2023-01-23T20:32:59.728Z,-0.22
2023-01-23T20:35:28.322Z,-0.14
2023-01-23T20:38:00.818Z,-0.08
2023-01-23T20:40:27.942Z,-0.04
2023-01-23T20:42:55.090Z,0.00
2023-01-23T20:45:22.415Z,0.05
2023-01-23T20:47:51.964Z,0.06
2023-01-23T20:50:19.539Z,0.11
2023-01-23T20:53:06.620Z,0.16
2023-01-23T20:55:34.511Z,0.19
2023-01-23T20:58:25.499Z,0.20
2023-01-23T21:00:52.341Z,0.21
2023-01-23T21:03:19.653Z,0.21
2023-01-23T21:05:47.095Z,0.25
2023-01-23T21:08:19.891Z,0.28
2023-01-23T21:10:46.926Z,0.29
2023-01-23T21:13:16.869Z,0.28
2023-01-23T21:15:43.907Z,0.26
2023-01-23T21:18:10.816Z,0.28
2023-01-23T21:20:39.969Z,0.32
2023-01-23T21:23:06.996Z,0.34
2023-01-23T21:25:35.214Z,0.29
2023-01-23T21:28:02.007Z,0.33
2023-01-23T21:30:29.291Z,0.34
2023-01-23T21:32:56.088Z,0.34
2023-01-23T21:35:23.780Z,0.27
2023-01-23T21:37:50.938Z,0.22
2023-01-23T21:40:23.088Z,0.25
2023-01-23T21:42:50.158Z,0.36
2023-01-23T21:45:16.960Z,0.43
2023-01-23T21:47:43.728Z,0.48
2023-01-23T21:50:17.774Z,0.51
2023-01-23T21:52:44.546Z,0.53
2023-01-23T21:55:11.376Z,0.43
2023-01-23T21:57:43.508Z,0.34
2023-01-23T22:00:29.430Z,0.34
2023-01-23T22:02:56.397Z,0.41
2023-01-23T22:05:23.575Z,0.46
2023-01-23T22:07:55.634Z,0.49
2023-01-23T22:10:22.469Z,0.54
2023-01-23T22:12:54.580Z,0.47
2023-01-23T22:15:26.606Z,0.48
2023-01-23T22:17:53.424Z,0.46
2023-01-23T22:20:20.677Z,0.44
2023-01-23T22:22:47.537Z,0.43
2023-01-23T22:25:14.638Z,0.52
2023-01-23T22:27:41.429Z,0.62
2023-01-23T22:30:08.634Z,0.60
2023-01-23T22:32:35.514Z,0.59
2023-01-23T22:35:02.297Z,0.69
